AGU weather

Jesús Terán Paredo International Airport
Aguascalientes, Aguascalientes, Mexico

Public forecast

Using degrees Celsius for public forecast. Weather courtesy of forecast.io.

METAR (pilot weather report)

Retrieved 2019/04/21 09:40 UTC (53 minutes ago):

MMAS 210940Z 16002KT 10SM SKC 15/04 A3024

TAF (pilot weather forecast)

Retrieved 2019/04/21 06:46 UTC (4 hours ago):

TAF MMAS 210439Z 2106/2206 00000KT P6SM SKC FM211800 23010KT P6SM BKN220 BECMG 2202/2203 26005KT